Terminal Aerodrome Forecast
Issued by NWS

Home | Current Version | Previous Version | Text Only | Print | Product List | Glossary On
Versions: 1 2 3 4 5 6 7 8 9 10 11 12
817
FTUS45 KFGZ 201742
TAFPGA
TAF
KPGA 201742Z 2018/2118 27010KT P6SM BKN040 OVC100
      TEMPO 2018/2020 6SM -SHRA BKN030
     FM202100 31008G15KT P6SM SCT060
     FM202300 01009KT P6SM FEW060
     FM210600 VRB05KT P6SM SKC=

USA.gov is the U.S. government's official web portal to all federal, state and local government web resources and services.